Hillcrest, Texas
Current Conditions -  °F | °C
As of 10:35 AM on Friday 19 Dec 2014 (Local Time) from K66R Reporting Station
Moderate Rain Moderate Rain  
Wind Chill: 52°   Ceiling: 900
Heat Index: 52°   Visibility: 10mi
Dew Point: 51°   Wind: 10mph
Humidity: 96%   Direction: 360°N
Pressure: 30.09"   Gusts: NA
Location:  29.6691°N, 96.5485°W
Report Text: K66R 191635Z AUTO 36009KT 10SM RA BKN009 OVC024 11/11 A3009 RMK AO2 T01110105
Loading
Personal Weather Stations






























Interactive Weather Map New forecast layout! Learn more

10-Day Weather Forecast

Advertisements
Track Severe Weather on mobile